createdAt,value
2022-09-16T00:02:27.149Z,85.81
2022-09-16T00:04:59.037Z,85.87
2022-09-16T00:07:32.944Z,86.04
2022-09-16T00:10:06.472Z,85.98
2022-09-16T00:12:38.588Z,86.18
2022-09-16T00:15:11.776Z,86.11
2022-09-16T00:17:43.765Z,86.33
2022-09-16T00:20:15.685Z,86.25
2022-09-16T00:22:47.648Z,86.21
2022-09-16T00:25:19.675Z,85.90
2022-09-16T00:27:51.787Z,85.89
2022-09-16T00:30:23.839Z,85.92
2022-09-16T00:32:56.188Z,85.96
2022-09-16T00:35:28.299Z,85.81
2022-09-16T00:38:00.260Z,85.77
2022-09-16T00:40:32.845Z,85.96
2022-09-16T00:43:04.910Z,86.04
2022-09-16T00:45:36.920Z,86.04
2022-09-16T00:48:12.687Z,86.23
2022-09-16T00:50:51.374Z,86.44
2022-09-16T00:53:26.262Z,86.46
2022-09-16T00:56:01.483Z,86.39
2022-09-16T00:58:45.685Z,86.15
2022-09-16T01:01:17.717Z,85.74
2022-09-16T01:03:52.687Z,85.25
2022-09-16T01:06:27.666Z,84.83
2022-09-16T01:09:00.105Z,84.46
2022-09-16T01:11:32.386Z,84.25
2022-09-16T01:14:23.513Z,84.15
2022-09-16T01:17:01.442Z,84.33
2022-09-16T01:19:36.452Z,84.41
2022-09-16T01:22:29.070Z,84.52
2022-09-16T01:25:19.051Z,84.74
2022-09-16T01:27:59.956Z,84.87
2022-09-16T01:30:56.241Z,84.93
2022-09-16T01:33:33.915Z,85.20
2022-09-16T01:36:08.809Z,85.30
2022-09-16T01:39:01.898Z,85.32
2022-09-16T01:41:54.802Z,85.43
2022-09-16T01:44:47.346Z,85.52
2022-09-16T01:47:41.527Z,85.66
2022-09-16T01:50:47.736Z,85.85
2022-09-16T01:53:25.368Z,85.85
2022-09-16T01:56:02.847Z,85.98
2022-09-16T01:58:57.021Z,85.99
2022-09-16T02:01:34.631Z,86.01
2022-09-16T02:04:15.438Z,86.17
2022-09-16T02:06:49.325Z,86.25
2022-09-16T02:09:24.305Z,86.18
2022-09-16T02:11:59.122Z,86.41
2022-09-16T02:14:33.084Z,86.15
2022-09-16T02:17:10.802Z,85.89
2022-09-16T02:19:48.754Z,85.92
2022-09-16T02:22:26.442Z,85.89
2022-09-16T02:25:01.302Z,85.46
2022-09-16T02:27:35.240Z,85.38
2022-09-16T02:30:10.565Z,84.99
2022-09-16T02:32:45.560Z,84.74
2022-09-16T02:35:20.313Z,84.46
2022-09-16T02:38:04.171Z,84.17
2022-09-16T02:40:42.241Z,83.96
2022-09-16T02:43:14.426Z,83.79
2022-09-16T02:45:55.390Z,83.61
2022-09-16T02:48:36.257Z,83.38
2022-09-16T02:51:27.519Z,83.04
2022-09-16T02:54:02.449Z,82.92
2022-09-16T02:56:37.442Z,82.66
2022-09-16T02:59:12.464Z,82.46
2022-09-16T03:01:47.432Z,82.19
2022-09-16T03:04:21.496Z,81.89
2022-09-16T03:06:53.375Z,81.81
2022-09-16T03:09:26.192Z,81.64
2022-09-16T03:12:25.308Z,81.39
2022-09-16T03:15:24.228Z,81.17
2022-09-16T03:17:59.419Z,81.00
2022-09-16T03:20:43.369Z,80.94
2022-09-16T03:23:45.554Z,80.74
2022-09-16T03:26:23.360Z,80.41
2022-09-16T03:29:18.099Z,80.08
2022-09-16T03:32:21.480Z,79.84
2022-09-16T03:34:59.300Z,79.57
2022-09-16T03:37:35.906Z,79.32
2022-09-16T03:40:11.290Z,79.04
2022-09-16T03:42:44.907Z,78.69
2022-09-16T03:45:22.363Z,78.38
2022-09-16T03:47:55.221Z,78.25
2022-09-16T03:50:27.304Z,78.09
2022-09-16T03:52:59.242Z,77.95
2022-09-16T03:55:31.521Z,77.59
2022-09-16T03:58:03.871Z,77.39
2022-09-16T04:00:37.083Z,77.27
2022-09-16T04:03:09.141Z,77.15
2022-09-16T04:05:41.218Z,76.74
2022-09-16T04:08:13.855Z,76.70
2022-09-16T04:11:00.165Z,76.62
2022-09-16T04:13:34.701Z,76.40
2022-09-16T04:16:07.176Z,76.15
2022-09-16T04:18:39.297Z,76.02
2022-09-16T04:21:11.666Z,75.86
2022-09-16T04:23:43.792Z,75.85
2022-09-16T04:26:15.819Z,75.54
2022-09-16T04:28:49.536Z,75.44
2022-09-16T04:31:22.129Z,75.12
2022-09-16T04:33:54.178Z,74.97
2022-09-16T04:36:26.213Z,74.69
2022-09-16T04:38:58.298Z,74.58
2022-09-16T04:41:30.365Z,74.41
2022-09-16T04:44:02.635Z,74.52
2022-09-16T04:46:35.144Z,74.19
2022-09-16T04:49:07.464Z,73.82
2022-09-16T04:51:39.962Z,73.61
2022-09-16T04:54:12.416Z,73.77
2022-09-16T04:56:44.453Z,73.70
2022-09-16T04:59:16.533Z,73.99
2022-09-16T05:01:48.660Z,73.85
2022-09-16T05:04:20.637Z,73.58
2022-09-16T05:06:53.039Z,73.58
2022-09-16T05:09:25.021Z,73.55
2022-09-16T05:11:57.233Z,73.63
2022-09-16T05:14:29.333Z,73.45
2022-09-16T05:17:01.842Z,73.41
2022-09-16T05:19:34.051Z,73.53
2022-09-16T05:22:08.142Z,73.65
2022-09-16T05:24:40.219Z,73.54
2022-09-16T05:27:12.169Z,73.29
2022-09-16T05:29:44.100Z,73.29
2022-09-16T05:32:16.179Z,73.12
2022-09-16T05:34:49.754Z,73.11
2022-09-16T05:37:21.726Z,73.44
2022-09-16T05:39:54.381Z,73.17
2022-09-16T05:42:26.883Z,73.22
2022-09-16T05:44:59.311Z,72.63
2022-09-16T05:47:32.791Z,72.63
2022-09-16T05:50:05.227Z,72.07
2022-09-16T05:52:37.458Z,71.32
2022-09-16T05:55:09.667Z,70.81
2022-09-16T05:57:41.680Z,70.02
2022-09-16T06:00:14.616Z,69.38
2022-09-16T06:02:48.448Z,68.63
2022-09-16T06:05:20.565Z,68.63
2022-09-16T06:07:54.114Z,68.68
2022-09-16T06:10:26.680Z,68.57
2022-09-16T06:12:58.760Z,68.45
2022-09-16T06:15:31.648Z,68.44
2022-09-16T06:18:06.577Z,68.68
2022-09-16T06:20:38.480Z,68.70
2022-09-16T06:23:10.497Z,69.17
2022-09-16T06:25:42.465Z,68.87
2022-09-16T06:28:15.080Z,68.73
2022-09-16T06:30:47.619Z,68.59
2022-09-16T06:33:19.688Z,68.36
2022-09-16T06:35:53.565Z,67.43
2022-09-16T06:38:25.987Z,67.48
2022-09-16T06:41:09.595Z,66.50
2022-09-16T06:43:41.866Z,65.86
2022-09-16T06:46:16.876Z,65.25
2022-09-16T06:48:51.349Z,64.59
2022-09-16T06:51:25.694Z,64.57
2022-09-16T06:54:03.781Z,64.19
2022-09-16T06:56:37.979Z,63.70
2022-09-16T06:59:13.044Z,63.79
2022-09-16T07:01:45.064Z,63.67
2022-09-16T07:04:17.151Z,63.03
2022-09-16T07:07:08.836Z,62.79
2022-09-16T07:09:24.811Z,62.29
2022-09-16T07:11:56.873Z,61.68
2022-09-16T07:14:32.117Z,61.49
2022-09-16T07:17:04.232Z,61.00
2022-09-16T07:19:36.822Z,60.26
2022-09-16T07:22:09.246Z,59.91
2022-09-16T07:24:41.510Z,59.97
2022-09-16T07:27:13.594Z,59.31
2022-09-16T07:29:46.086Z,59.36
2022-09-16T07:32:18.339Z,59.10
2022-09-16T07:34:50.632Z,58.98
2022-09-16T07:37:23.594Z,59.23
2022-09-16T07:39:55.858Z,58.88
2022-09-16T07:42:29.266Z,59.56
2022-09-16T07:45:01.423Z,60.08
2022-09-16T07:47:34.084Z,60.77
2022-09-16T07:50:07.232Z,61.04
2022-09-16T07:52:39.234Z,60.86
2022-09-16T07:55:12.962Z,59.64
2022-09-16T07:57:45.106Z,58.51
2022-09-16T08:00:17.315Z,56.82
2022-09-16T08:02:49.409Z,56.10
2022-09-16T08:05:21.532Z,55.57
2022-09-16T08:07:53.924Z,55.20
2022-09-16T08:10:29.198Z,55.64
2022-09-16T08:13:00.265Z,56.39
2022-09-16T08:15:32.389Z,56.18
2022-09-16T08:18:05.202Z,56.29
2022-09-16T08:20:38.581Z,55.71
2022-09-16T08:23:10.933Z,55.78
2022-09-16T08:25:42.997Z,55.17
2022-09-16T08:28:18.562Z,55.31
2022-09-16T08:30:53.210Z,54.92
2022-09-16T08:33:25.978Z,54.67
2022-09-16T08:36:10.201Z,53.86
2022-09-16T08:38:43.031Z,53.67
2022-09-16T08:41:36.452Z,53.63
2022-09-16T08:44:32.655Z,53.77
2022-09-16T08:47:08.150Z,53.28
2022-09-16T08:49:47.015Z,52.97
2022-09-16T08:52:34.276Z,52.59
2022-09-16T08:55:15.461Z,52.65
2022-09-16T08:57:56.279Z,51.95
2022-09-16T09:00:28.464Z,51.46
2022-09-16T09:03:31.978Z,51.47
2022-09-16T09:06:09.894Z,51.01
2022-09-16T09:08:44.986Z,51.42
2022-09-16T09:11:19.906Z,52.01
2022-09-16T09:14:24.009Z,50.72
2022-09-16T09:17:20.168Z,50.66
2022-09-16T09:20:01.264Z,50.03
2022-09-16T09:23:00.322Z,48.91
2022-09-16T09:25:53.620Z,48.75
2022-09-16T09:28:37.428Z,48.74
2022-09-16T09:31:21.451Z,49.32
2022-09-16T09:33:56.304Z,49.42
2022-09-16T09:36:31.452Z,50.28
2022-09-16T09:39:09.218Z,50.45
2022-09-16T09:41:53.032Z,50.86
2022-09-16T09:44:49.059Z,51.00
2022-09-16T09:47:36.321Z,50.47
2022-09-16T09:50:27.588Z,49.99
2022-09-16T09:53:14.417Z,49.69
2022-09-16T09:55:46.831Z,49.44
2022-09-16T09:58:40.504Z,49.29
2022-09-16T10:01:13.342Z,49.71
2022-09-16T10:03:45.502Z,49.46
2022-09-16T10:06:19.788Z,49.12
2022-09-16T10:08:54.660Z,49.49
2022-09-16T10:11:31.325Z,50.42
2022-09-16T10:14:05.884Z,50.84
2022-09-16T10:16:38.195Z,51.00
2022-09-16T10:19:21.303Z,50.64
2022-09-16T10:21:59.210Z,50.18
2022-09-16T10:24:36.604Z,50.27
2022-09-16T10:27:26.999Z,50.46
2022-09-16T10:30:17.132Z,51.01
2022-09-16T10:33:01.585Z,50.66
2022-09-16T10:35:36.508Z,50.87
2022-09-16T10:38:14.757Z,50.83
2022-09-16T10:40:55.429Z,51.20
2022-09-16T10:43:29.873Z,50.87
2022-09-16T10:46:02.124Z,51.26
2022-09-16T10:48:36.530Z,51.30
2022-09-16T10:51:11.492Z,51.29
2022-09-16T10:53:46.847Z,51.15
2022-09-16T10:56:22.540Z,51.62
2022-09-16T10:59:06.729Z,52.03
2022-09-16T11:01:44.676Z,51.79
2022-09-16T11:04:34.871Z,51.79
2022-09-16T11:07:15.676Z,51.87
2022-09-16T11:09:56.446Z,52.32
2022-09-16T11:12:53.984Z,52.65
2022-09-16T11:15:44.063Z,53.23
2022-09-16T11:18:35.511Z,53.93
2022-09-16T11:21:35.983Z,55.50
2022-09-16T11:24:28.829Z,56.27
2022-09-16T11:27:31.076Z,56.36
2022-09-16T11:30:17.879Z,57.54
2022-09-16T11:33:07.755Z,57.46
2022-09-16T11:35:59.349Z,56.72
2022-09-16T11:38:50.790Z,56.66
2022-09-16T11:41:48.320Z,57.58
2022-09-16T11:44:47.073Z,57.84
2022-09-16T11:47:21.808Z,57.21
2022-09-16T11:50:08.660Z,56.57
2022-09-16T11:53:01.438Z,56.44
2022-09-16T11:55:41.086Z,56.21
2022-09-16T11:58:51.060Z,55.96
2022-09-16T12:01:42.766Z,55.53
2022-09-16T12:04:17.899Z,53.98
2022-09-16T12:06:53.647Z,53.82
2022-09-16T12:09:34.492Z,54.58
2022-09-16T12:12:12.173Z,54.82
2022-09-16T12:14:53.694Z,54.85
2022-09-16T12:17:28.545Z,56.69
2022-09-16T12:20:06.457Z,57.07
2022-09-16T12:22:47.304Z,57.91
2022-09-16T12:25:22.604Z,58.64
2022-09-16T12:28:00.362Z,61.04
2022-09-16T12:30:41.326Z,61.24
2022-09-16T12:33:19.833Z,62.97
2022-09-16T12:36:06.747Z,64.23
2022-09-16T12:38:40.211Z,65.53
2022-09-16T12:41:33.161Z,66.20
2022-09-16T12:44:36.835Z,66.85
2022-09-16T12:47:18.152Z,67.43
2022-09-16T12:50:05.241Z,68.34
2022-09-16T12:52:52.321Z,68.54
2022-09-16T12:55:33.264Z,69.60
2022-09-16T12:58:14.220Z,70.55
2022-09-16T13:01:16.670Z,72.04
2022-09-16T13:03:58.359Z,72.61
2022-09-16T13:06:33.768Z,72.66
2022-09-16T13:09:40.339Z,73.83
2022-09-16T13:12:39.174Z,73.22
2022-09-16T13:15:07.437Z,75.15
2022-09-16T13:17:41.688Z,74.93
2022-09-16T13:20:14.714Z,75.77
2022-09-16T13:22:49.646Z,72.79
2022-09-16T13:25:36.658Z,74.59
2022-09-16T13:28:28.548Z,75.18
2022-09-16T13:31:18.768Z,75.54
2022-09-16T13:33:59.997Z,75.56
2022-09-16T13:36:34.123Z,76.64
2022-09-16T13:39:09.220Z,77.92
2022-09-16T13:41:48.152Z,77.92
2022-09-16T13:44:42.356Z,77.96
2022-09-16T13:47:22.901Z,78.72
2022-09-16T13:50:12.171Z,79.33
2022-09-16T13:52:47.231Z,78.18
2022-09-16T13:55:24.103Z,78.72
2022-09-16T13:58:32.646Z,79.09
2022-09-16T14:01:15.340Z,79.67
2022-09-16T14:04:23.123Z,79.67
2022-09-16T14:07:23.589Z,80.43
2022-09-16T14:10:16.909Z,80.15
2022-09-16T14:13:11.245Z,81.08
2022-09-16T14:15:46.957Z,81.50
2022-09-16T14:18:24.222Z,81.71
2022-09-16T14:21:02.407Z,81.73
2022-09-16T14:23:36.530Z,82.54
2022-09-16T14:26:15.342Z,82.51
2022-09-16T14:28:48.651Z,83.05
2022-09-16T14:31:27.042Z,83.11
2022-09-16T14:34:05.311Z,83.17
2022-09-16T14:36:44.517Z,83.08
2022-09-16T14:39:20.373Z,82.58
2022-09-16T14:41:56.046Z,82.56
2022-09-16T14:44:46.985Z,82.16
2022-09-16T14:47:39.709Z,82.75
2022-09-16T14:50:04.467Z,82.75
2022-09-16T14:52:37.953Z,82.41
2022-09-16T14:55:23.202Z,82.85
2022-09-16T14:57:57.725Z,82.37
2022-09-16T15:00:33.357Z,82.32
2022-09-16T15:03:20.205Z,82.64
2022-09-16T15:05:59.281Z,82.64
2022-09-16T15:08:47.333Z,83.21
2022-09-16T15:11:48.651Z,84.16
2022-09-16T15:14:14.749Z,83.76
2022-09-16T15:16:50.252Z,83.74
2022-09-16T15:19:31.257Z,83.62
2022-09-16T15:22:11.606Z,84.19
2022-09-16T15:24:46.133Z,84.29
2022-09-16T15:27:31.799Z,84.19
2022-09-16T15:30:06.047Z,83.82
2022-09-16T15:32:39.521Z,84.11
2022-09-16T15:35:27.116Z,83.95
2022-09-16T15:37:59.993Z,83.85
2022-09-16T15:40:36.124Z,83.70
2022-09-16T15:43:23.597Z,84.48
2022-09-16T15:46:02.259Z,84.17
2022-09-16T15:48:38.412Z,83.83
2022-09-16T15:51:14.239Z,83.83
2022-09-16T15:53:50.539Z,84.02
2022-09-16T15:56:26.399Z,84.77
2022-09-16T15:59:13.824Z,84.54
2022-09-16T16:01:53.443Z,84.54
2022-09-16T16:04:36.472Z,84.91
2022-09-16T16:07:09.109Z,84.79
2022-09-16T16:09:44.616Z,85.24
2022-09-16T16:12:19.067Z,85.59
2022-09-16T16:14:51.951Z,85.99
2022-09-16T16:17:28.762Z,86.04
2022-09-16T16:20:03.509Z,85.88
2022-09-16T16:22:36.449Z,86.29
2022-09-16T16:25:10.264Z,86.46
2022-09-16T16:27:42.863Z,86.71
2022-09-16T16:30:16.094Z,86.63
2022-09-16T16:32:50.848Z,86.61
2022-09-16T16:35:28.486Z,86.84
2022-09-16T16:38:00.844Z,86.84
2022-09-16T16:40:34.499Z,86.96
2022-09-16T16:43:07.075Z,86.84
2022-09-16T16:45:41.599Z,87.05
2022-09-16T16:48:20.565Z,86.98
2022-09-16T16:51:02.074Z,86.59
2022-09-16T16:53:35.886Z,86.82
2022-09-16T16:56:14.876Z,87.07
2022-09-16T16:58:47.516Z,87.08
2022-09-16T17:01:21.472Z,86.94
2022-09-16T17:03:53.917Z,86.75
2022-09-16T17:06:27.032Z,86.74
2022-09-16T17:09:00.241Z,87.02
2022-09-16T17:11:34.297Z,87.02
2022-09-16T17:14:08.980Z,87.14
2022-09-16T17:16:43.793Z,86.84
2022-09-16T17:19:18.899Z,87.08
2022-09-16T17:21:54.672Z,87.42
2022-09-16T17:24:27.688Z,87.42
2022-09-16T17:27:00.504Z,87.19
2022-09-16T17:29:33.675Z,87.31
2022-09-16T17:32:08.802Z,87.03
2022-09-16T17:34:44.617Z,87.03
2022-09-16T17:37:20.161Z,87.04
2022-09-16T17:39:54.771Z,87.26
2022-09-16T17:42:28.100Z,86.99
2022-09-16T17:45:03.414Z,87.01
2022-09-16T17:47:38.810Z,86.99
2022-09-16T17:50:13.018Z,86.97
2022-09-16T17:52:46.723Z,86.84
2022-09-16T17:55:19.377Z,87.05
2022-09-16T17:57:52.604Z,87.44
2022-09-16T18:00:25.488Z,87.82
2022-09-16T18:02:58.321Z,87.01
2022-09-16T18:05:33.585Z,87.04
2022-09-16T18:08:07.948Z,86.24
2022-09-16T18:10:40.368Z,86.65
2022-09-16T18:13:12.598Z,86.28
2022-09-16T18:15:45.648Z,85.44
2022-09-16T18:18:18.458Z,85.84
2022-09-16T18:20:56.837Z,85.84
2022-09-16T18:23:29.054Z,86.13
2022-09-16T18:26:10.201Z,85.96
2022-09-16T18:29:08.600Z,87.02
2022-09-16T18:31:24.820Z,87.02
2022-09-16T18:33:57.928Z,86.46
2022-09-16T18:36:31.035Z,86.47
2022-09-16T18:39:11.230Z,86.90
2022-09-16T18:41:45.919Z,86.90
2022-09-16T18:44:26.006Z,86.60
2022-09-16T18:46:58.505Z,86.20
2022-09-16T18:49:31.790Z,86.41
2022-09-16T18:52:05.029Z,86.65
2022-09-16T18:54:38.085Z,86.72
2022-09-16T18:57:12.986Z,86.75
2022-09-16T18:59:45.978Z,86.21
2022-09-16T19:02:18.188Z,85.85
2022-09-16T19:04:55.148Z,85.95
2022-09-16T19:07:28.248Z,86.67
2022-09-16T19:10:00.708Z,87.23
2022-09-16T19:12:38.449Z,87.21
2022-09-16T19:15:09.329Z,87.53
2022-09-16T19:17:42.604Z,87.35
2022-09-16T19:20:15.195Z,87.31
2022-09-16T19:22:48.030Z,87.28
2022-09-16T19:25:22.834Z,87.07
2022-09-16T19:27:55.137Z,87.21
2022-09-16T19:30:27.426Z,87.31
2022-09-16T19:33:01.265Z,87.20
2022-09-16T19:35:34.579Z,87.35
2022-09-16T19:38:07.348Z,87.00
2022-09-16T19:40:39.599Z,87.19
2022-09-16T19:43:12.445Z,87.19
2022-09-16T19:45:44.859Z,87.45
2022-09-16T19:48:18.033Z,87.54
2022-09-16T19:50:53.909Z,87.80
2022-09-16T19:53:25.919Z,87.76
2022-09-16T19:55:59.638Z,87.76
2022-09-16T19:58:33.444Z,87.75
2022-09-16T20:01:08.898Z,87.52
2022-09-16T20:03:44.287Z,87.62
2022-09-16T20:06:24.973Z,87.70
2022-09-16T20:08:59.896Z,87.45
2022-09-16T20:11:35.006Z,87.31
2022-09-16T20:14:09.626Z,87.00
2022-09-16T20:16:42.244Z,86.19
2022-09-16T20:19:16.235Z,86.00
2022-09-16T20:21:48.701Z,86.81
2022-09-16T20:24:23.692Z,87.05
2022-09-16T20:26:57.434Z,87.32
2022-09-16T20:29:30.931Z,87.70
2022-09-16T20:32:03.211Z,87.89
2022-09-16T20:34:37.409Z,87.89
2022-09-16T20:37:10.336Z,87.96
2022-09-16T20:39:44.977Z,88.08
2022-09-16T20:42:17.336Z,88.39
2022-09-16T20:44:49.780Z,88.49
2022-09-16T20:47:22.338Z,88.50
2022-09-16T20:49:54.482Z,88.59
2022-09-16T20:52:27.062Z,88.73
2022-09-16T20:55:02.690Z,88.74
2022-09-16T20:57:35.506Z,88.85
2022-09-16T21:00:08.314Z,89.14
2022-09-16T21:02:40.841Z,89.44
2022-09-16T21:05:13.423Z,89.51
2022-09-16T21:07:45.752Z,89.52
2022-09-16T21:10:18.375Z,89.40
2022-09-16T21:12:51.179Z,89.34
2022-09-16T21:15:24.934Z,89.26
2022-09-16T21:17:57.139Z,89.34
2022-09-16T21:20:31.011Z,89.32
2022-09-16T21:23:04.353Z,89.47
2022-09-16T21:25:36.644Z,89.33
2022-09-16T21:28:08.900Z,88.46
2022-09-16T21:30:41.076Z,88.35
2022-09-16T21:33:14.588Z,88.42
2022-09-16T21:35:54.126Z,87.57
2022-09-16T21:38:28.323Z,87.43
2022-09-16T21:41:02.988Z,87.56
2022-09-16T21:43:38.149Z,87.16
2022-09-16T21:46:14.099Z,87.65
2022-09-16T21:48:46.313Z,87.33
2022-09-16T21:51:20.270Z,87.15
2022-09-16T21:53:52.279Z,86.53
2022-09-16T21:56:24.896Z,86.13
2022-09-16T21:58:58.437Z,86.40
2022-09-16T22:01:31.746Z,86.03
2022-09-16T22:04:06.621Z,85.71
2022-09-16T22:06:38.484Z,84.75
2022-09-16T22:09:11.858Z,84.75
2022-09-16T22:11:44.394Z,84.11
2022-09-16T22:14:16.480Z,84.21
2022-09-16T22:16:48.405Z,84.21
2022-09-16T22:19:21.020Z,84.87
2022-09-16T22:21:53.093Z,84.76
2022-09-16T22:24:25.292Z,84.12
2022-09-16T22:26:57.478Z,84.33
2022-09-16T22:29:29.422Z,84.39
2022-09-16T22:32:03.034Z,84.76
2022-09-16T22:34:36.929Z,84.86
2022-09-16T22:37:10.691Z,85.06
2022-09-16T22:39:42.718Z,85.24
2022-09-16T22:42:14.767Z,85.55
2022-09-16T22:44:47.007Z,86.06
2022-09-16T22:47:19.275Z,86.32
2022-09-16T22:49:51.290Z,86.56
2022-09-16T22:52:23.561Z,86.61
2022-09-16T22:54:55.722Z,86.40
2022-09-16T22:57:27.710Z,86.17
2022-09-16T23:00:00.036Z,86.25
2022-09-16T23:02:33.456Z,85.89
2022-09-16T23:05:07.517Z,86.00
2022-09-16T23:07:39.942Z,85.89
2022-09-16T23:10:12.147Z,85.86
2022-09-16T23:12:44.306Z,85.94
2022-09-16T23:15:16.329Z,85.90
2022-09-16T23:17:48.437Z,86.04
2022-09-16T23:20:20.508Z,86.12
2022-09-16T23:22:52.531Z,86.31
2022-09-16T23:25:24.781Z,86.78
2022-09-16T23:27:56.672Z,87.26
2022-09-16T23:30:28.632Z,87.29
2022-09-16T23:33:00.611Z,87.21
2022-09-16T23:35:32.602Z,86.88
2022-09-16T23:38:04.578Z,86.89
2022-09-16T23:40:38.323Z,86.82
2022-09-16T23:43:10.306Z,87.03
2022-09-16T23:45:42.945Z,87.02
2022-09-16T23:48:15.312Z,87.23
2022-09-16T23:50:47.265Z,87.28
2022-09-16T23:53:19.318Z,87.34
2022-09-16T23:55:51.286Z,87.11
2022-09-16T23:58:23.435Z,87.15
